sensor_id;sensor_type;location;lat;lon;timestamp;P1;P2;P0
72509;PMS5003;60532;56.114;40.350;2022-12-29T00:00:29;24.25;22.25;12.00
72509;PMS5003;60532;56.114;40.350;2022-12-29T00:02:29;38.50;26.75;11.50
72509;PMS5003;60532;56.114;40.350;2022-12-29T00:04:30;25.25;23.75;10.00
72509;PMS5003;60532;56.114;40.350;2022-12-29T00:06:31;25.25;21.25;9.00
72509;PMS5003;60532;56.114;40.350;2022-12-29T00:08:31;21.40;18.60;7.00
72509;PMS5003;60532;56.114;40.350;2022-12-29T00:10:41;38.80;28.80;15.00
72509;PMS5003;60532;56.114;40.350;2022-12-29T00:12:41;24.75;18.75;7.00
72509;PMS5003;60532;56.114;40.350;2022-12-29T00:15:00;26.60;24.20;10.40
72509;PMS5003;60532;56.114;40.350;2022-12-29T00:17:19;32.40;24.60;11.60
72509;PMS5003;60532;56.114;40.350;2022-12-29T00:19:20;24.25;19.25;9.25
72509;PMS5003;60532;56.114;40.350;2022-12-29T00:21:39;36.40;22.20;10.40
72509;PMS5003;60532;56.114;40.350;2022-12-29T00:23:58;28.60;24.20;9.40
72509;PMS5003;60532;56.114;40.350;2022-12-29T00:26:17;31.60;25.00;12.00
72509;PMS5003;60532;56.114;40.350;2022-12-29T00:28:36;32.40;25.80;13.00
72509;PMS5003;60532;56.114;40.350;2022-12-29T00:30:59;29.00;20.40;12.00
72509;PMS5003;60532;56.114;40.350;2022-12-29T00:33:19;23.20;22.40;8.60
72509;PMS5003;60532;56.114;40.350;2022-12-29T00:35:39;29.60;23.00;11.60
72509;PMS5003;60532;56.114;40.350;2022-12-29T00:37:43;34.60;25.40;10.40
72509;PMS5003;60532;56.114;40.350;2022-12-29T00:40:02;37.80;29.60;12.40
72509;PMS5003;60532;56.114;40.350;2022-12-29T00:42:21;27.40;19.00;9.20
72509;PMS5003;60532;56.114;40.350;2022-12-29T00:44:40;32.40;24.20;9.80
72509;PMS5003;60532;56.114;40.350;2022-12-29T00:46:41;35.50;24.75;11.00
72509;PMS5003;60532;56.114;40.350;2022-12-29T00:48:42;35.60;28.80;12.20
72509;PMS5003;60532;56.114;40.350;2022-12-29T00:51:01;37.40;29.60;12.00
72509;PMS5003;60532;56.114;40.350;2022-12-29T00:53:01;32.25;24.25;11.75
72509;PMS5003;60532;56.114;40.350;2022-12-29T00:55:02;32.25;23.25;11.00
72509;PMS5003;60532;56.114;40.350;2022-12-29T00:57:03;26.50;24.00;10.00
72509;PMS5003;60532;56.114;40.350;2022-12-29T00:59:05;22.00;18.00;6.20
72509;PMS5003;60532;56.114;40.350;2022-12-29T01:01:07;28.20;21.60;11.20
72509;PMS5003;60532;56.114;40.350;2022-12-29T01:03:08;23.60;19.80;11.60
72509;PMS5003;60532;56.114;40.350;2022-12-29T01:05:08;26.50;21.50;9.00
72509;PMS5003;60532;56.114;40.350;2022-12-29T01:07:09;37.75;27.25;11.00
72509;PMS5003;60532;56.114;40.350;2022-12-29T01:09:10;24.75;18.75;8.50
72509;PMS5003;60532;56.114;40.350;2022-12-29T01:11:28;26.40;18.60;6.40
72509;PMS5003;60532;56.114;40.350;2022-12-29T01:13:29;26.25;23.00;11.00
72509;PMS5003;60532;56.114;40.350;2022-12-29T01:15:29;25.75;16.75;9.00
72509;PMS5003;60532;56.114;40.350;2022-12-29T01:17:30;23.00;18.25;10.00
72509;PMS5003;60532;56.114;40.350;2022-12-29T01:19:30;29.00;22.50;9.75
72509;PMS5003;60532;56.114;40.350;2022-12-29T01:21:33;27.00;19.00;9.50
72509;PMS5003;60532;56.114;40.350;2022-12-29T01:23:33;25.20;21.20;10.40
72509;PMS5003;60532;56.114;40.350;2022-12-29T01:25:34;34.00;27.50;10.00
72509;PMS5003;60532;56.114;40.350;2022-12-29T01:27:34;33.50;27.25;12.50
72509;PMS5003;60532;56.114;40.350;2022-12-29T01:29:35;24.50;19.00;9.00
72509;PMS5003;60532;56.114;40.350;2022-12-29T01:31:35;29.50;16.50;9.00
72509;PMS5003;60532;56.114;40.350;2022-12-29T01:33:36;32.40;19.40;9.00
72509;PMS5003;60532;56.114;40.350;2022-12-29T01:35:37;30.25;24.00;9.75
72509;PMS5003;60532;56.114;40.350;2022-12-29T01:37:37;27.50;21.25;9.25
72509;PMS5003;60532;56.114;40.350;2022-12-29T01:39:38;25.00;22.00;11.50
72509;PMS5003;60532;56.114;40.350;2022-12-29T01:41:38;26.50;17.50;7.00
72509;PMS5003;60532;56.114;40.350;2022-12-29T01:43:42;21.75;20.50;12.00
72509;PMS5003;60532;56.114;40.350;2022-12-29T01:45:48;26.60;18.80;8.20
72509;PMS5003;60532;56.114;40.350;2022-12-29T01:47:54;30.40;21.80;10.00
72509;PMS5003;60532;56.114;40.350;2022-12-29T01:49:56;24.60;21.00;11.60
72509;PMS5003;60532;56.114;40.350;2022-12-29T01:51:59;32.60;24.80;9.00
72509;PMS5003;60532;56.114;40.350;2022-12-29T01:54:02;24.00;19.20;9.20
72509;PMS5003;60532;56.114;40.350;2022-12-29T01:56:06;30.80;25.40;12.00
72509;PMS5003;60532;56.114;40.350;2022-12-29T01:58:07;25.00;22.40;9.00
72509;PMS5003;60532;56.114;40.350;2022-12-29T02:00:10;31.00;23.80;10.00
72509;PMS5003;60532;56.114;40.350;2022-12-29T02:02:12;24.40;20.20;11.00
72509;PMS5003;60532;56.114;40.350;2022-12-29T02:04:12;28.00;13.25;8.75
72509;PMS5003;60532;56.114;40.350;2022-12-29T02:08:16;24.00;18.00;7.00
72509;PMS5003;60532;56.114;40.350;2022-12-29T02:10:18;22.50;20.50;9.00
72509;PMS5003;60532;56.114;40.350;2022-12-29T02:12:20;30.00;21.00;9.80
72509;PMS5003;60532;56.114;40.350;2022-12-29T02:14:21;28.60;18.80;9.40
72509;PMS5003;60532;56.114;40.350;2022-12-29T02:18:37;26.80;21.80;9.00
72509;PMS5003;60532;56.114;40.350;2022-12-29T02:36:24;25.20;15.80;7.80
72509;PMS5003;60532;56.114;40.350;2022-12-29T02:40:51;30.40;20.60;8.20
72509;PMS5003;60532;56.114;40.350;2022-12-29T02:42:57;25.00;16.40;8.60
72509;PMS5003;60532;56.114;40.350;2022-12-29T02:47:04;21.75;19.00;9.00
72509;PMS5003;60532;56.114;40.350;2022-12-29T02:49:30;24.00;21.40;6.60
72509;PMS5003;60532;56.114;40.350;2022-12-29T02:51:42;19.80;16.40;4.00
72509;PMS5003;60532;56.114;40.350;2022-12-29T02:53:44;20.80;17.60;7.40
72509;PMS5003;60532;56.114;40.350;2022-12-29T02:56:04;25.40;22.00;10.40
72509;PMS5003;60532;56.114;40.350;2022-12-29T03:00:14;17.60;15.20;4.80
72509;PMS5003;60532;56.114;40.350;2022-12-29T03:04:25;19.20;15.00;7.40
72509;PMS5003;60532;56.114;40.350;2022-12-29T03:08:54;22.80;15.00;7.80
72509;PMS5003;60532;56.114;40.350;2022-12-29T03:11:02;30.60;23.20;9.80
72509;PMS5003;60532;56.114;40.350;2022-12-29T03:15:51;21.60;15.20;5.20
72509;PMS5003;60532;56.114;40.350;2022-12-29T03:18:15;25.20;19.40;7.00
72509;PMS5003;60532;56.114;40.350;2022-12-29T03:20:31;18.20;15.40;7.80
72509;PMS5003;60532;56.114;40.350;2022-12-29T03:22:32;22.00;18.20;7.40
72509;PMS5003;60532;56.114;40.350;2022-12-29T03:24:37;16.40;14.20;8.60
72509;PMS5003;60532;56.114;40.350;2022-12-29T03:26:39;20.40;18.20;7.80
72509;PMS5003;60532;56.114;40.350;2022-12-29T03:28:49;24.20;18.40;6.20
72509;PMS5003;60532;56.114;40.350;2022-12-29T03:30:51;26.00;19.00;8.60
72509;PMS5003;60532;56.114;40.350;2022-12-29T03:32:53;21.00;18.00;8.00
72509;PMS5003;60532;56.114;40.350;2022-12-29T03:34:54;21.80;18.80;6.80
72509;PMS5003;60532;56.114;40.350;2022-12-29T03:36:58;28.75;19.00;8.50
72509;PMS5003;60532;56.114;40.350;2022-12-29T03:39:06;25.20;21.60;9.80
72509;PMS5003;60532;56.114;40.350;2022-12-29T03:41:09;17.00;12.00;6.80
72509;PMS5003;60532;56.114;40.350;2022-12-29T03:43:11;24.00;18.80;9.00
72509;PMS5003;60532;56.114;40.350;2022-12-29T03:45:13;26.60;18.60;7.40
72509;PMS5003;60532;56.114;40.350;2022-12-29T03:47:14;18.00;16.00;6.00
72509;PMS5003;60532;56.114;40.350;2022-12-29T03:49:14;16.60;15.60;7.40
72509;PMS5003;60532;56.114;40.350;2022-12-29T03:51:15;28.00;21.50;7.00
72509;PMS5003;60532;56.114;40.350;2022-12-29T03:53:15;15.50;14.50;4.00
72509;PMS5003;60532;56.114;40.350;2022-12-29T03:55:16;26.00;19.50;9.75
72509;PMS5003;60532;56.114;40.350;2022-12-29T03:57:16;24.00;21.00;7.50
72509;PMS5003;60532;56.114;40.350;2022-12-29T03:59:17;28.00;17.75;9.00
72509;PMS5003;60532;56.114;40.350;2022-12-29T04:01:17;19.50;18.50;10.50
72509;PMS5003;60532;56.114;40.350;2022-12-29T04:03:18;31.00;22.00;11.50
72509;PMS5003;60532;56.114;40.350;2022-12-29T04:05:18;16.00;12.25;4.00
72509;PMS5003;60532;56.114;40.350;2022-12-29T04:07:19;13.50;11.50;5.00
72509;PMS5003;60532;56.114;40.350;2022-12-29T04:09:19;21.25;18.00;9.00
72509;PMS5003;60532;56.114;40.350;2022-12-29T04:11:20;26.25;18.25;7.00
72509;PMS5003;60532;56.114;40.350;2022-12-29T04:13:21;29.50;16.00;7.00
72509;PMS5003;60532;56.114;40.350;2022-12-29T04:15:21;21.00;18.50;8.00
72509;PMS5003;60532;56.114;40.350;2022-12-29T04:17:24;24.80;18.00;9.60
72509;PMS5003;60532;56.114;40.350;2022-12-29T04:19:24;19.25;19.25;9.75
72509;PMS5003;60532;56.114;40.350;2022-12-29T04:21:25;24.25;18.00;7.00
72509;PMS5003;60532;56.114;40.350;2022-12-29T04:23:26;27.50;22.50;9.75
72509;PMS5003;60532;56.114;40.350;2022-12-29T04:25:27;28.80;22.00;9.00
72509;PMS5003;60532;56.114;40.350;2022-12-29T04:27:27;32.25;21.50;9.25
72509;PMS5003;60532;56.114;40.350;2022-12-29T04:29:28;27.50;19.00;9.50
72509;PMS5003;60532;56.114;40.350;2022-12-29T04:31:28;22.50;17.75;9.00
72509;PMS5003;60532;56.114;40.350;2022-12-29T04:33:29;33.50;21.50;9.50
72509;PMS5003;60532;56.114;40.350;2022-12-29T04:35:29;34.75;18.75;9.00
72509;PMS5003;60532;56.114;40.350;2022-12-29T04:37:30;24.50;15.25;9.00
72509;PMS5003;60532;56.114;40.350;2022-12-29T04:39:30;18.25;18.25;7.00
72509;PMS5003;60532;56.114;40.350;2022-12-29T04:41:33;26.80;18.00;8.40
72509;PMS5003;60532;56.114;40.350;2022-12-29T04:43:33;25.75;14.50;7.00
72509;PMS5003;60532;56.114;40.350;2022-12-29T04:45:34;44.00;25.50;12.00
72509;PMS5003;60532;56.114;40.350;2022-12-29T04:47:34;21.75;17.50;6.25
72509;PMS5003;60532;56.114;40.350;2022-12-29T04:49:35;27.50;22.00;9.00
72509;PMS5003;60532;56.114;40.350;2022-12-29T04:51:35;19.00;16.50;9.00
72509;PMS5003;60532;56.114;40.350;2022-12-29T04:53:36;25.50;17.50;9.00
72509;PMS5003;60532;56.114;40.350;2022-12-29T04:55:36;29.50;23.00;9.25
72509;PMS5003;60532;56.114;40.350;2022-12-29T04:57:37;35.00;21.00;10.00
72509;PMS5003;60532;56.114;40.350;2022-12-29T04:59:37;26.00;21.50;12.50
72509;PMS5003;60532;56.114;40.350;2022-12-29T05:01:38;30.75;21.25;10.00
72509;PMS5003;60532;56.114;40.350;2022-12-29T05:03:38;28.25;25.25;9.00
72509;PMS5003;60532;56.114;40.350;2022-12-29T05:05:39;21.00;17.25;10.00
72509;PMS5003;60532;56.114;40.350;2022-12-29T05:07:39;30.50;19.50;10.00
72509;PMS5003;60532;56.114;40.350;2022-12-29T05:09:40;32.50;21.25;9.50
72509;PMS5003;60532;56.114;40.350;2022-12-29T05:11:40;30.00;24.50;11.25
72509;PMS5003;60532;56.114;40.350;2022-12-29T05:13:41;27.00;21.50;10.50
72509;PMS5003;60532;56.114;40.350;2022-12-29T05:15:45;33.00;22.25;12.00
72509;PMS5003;60532;56.114;40.350;2022-12-29T05:17:46;34.20;25.60;10.00
72509;PMS5003;60532;56.114;40.350;2022-12-29T05:19:49;23.00;18.00;9.00
72509;PMS5003;60532;56.114;40.350;2022-12-29T05:21:50;29.80;22.80;10.80
72509;PMS5003;60532;56.114;40.350;2022-12-29T05:23:50;32.00;22.00;9.75
72509;PMS5003;60532;56.114;40.350;2022-12-29T05:25:51;20.75;14.00;5.50
72509;PMS5003;60532;56.114;40.350;2022-12-29T05:27:51;32.00;28.50;10.00
72509;PMS5003;60532;56.114;40.350;2022-12-29T05:29:52;36.75;27.25;12.00
72509;PMS5003;60532;56.114;40.350;2022-12-29T05:31:52;34.75;24.50;11.50
72509;PMS5003;60532;56.114;40.350;2022-12-29T05:33:53;33.75;22.00;12.00
72509;PMS5003;60532;56.114;40.350;2022-12-29T05:35:53;28.00;20.75;10.50
72509;PMS5003;60532;56.114;40.350;2022-12-29T05:37:54;15.25;9.50;5.50
72509;PMS5003;60532;56.114;40.350;2022-12-29T05:39:54;23.75;23.50;10.00
72509;PMS5003;60532;56.114;40.350;2022-12-29T05:41:55;29.50;25.75;9.25
72509;PMS5003;60532;56.114;40.350;2022-12-29T05:43:55;18.00;13.25;10.00
72509;PMS5003;60532;56.114;40.350;2022-12-29T05:45:56;24.75;21.00;12.00
72509;PMS5003;60532;56.114;40.350;2022-12-29T05:47:57;25.40;17.60;10.00
72509;PMS5003;60532;56.114;40.350;2022-12-29T05:49:58;22.00;21.00;10.50
72509;PMS5003;60532;56.114;40.350;2022-12-29T05:51:58;26.00;23.00;9.25
72509;PMS5003;60532;56.114;40.350;2022-12-29T05:53:59;28.75;22.75;11.50
72509;PMS5003;60532;56.114;40.350;2022-12-29T05:55:59;22.75;17.00;7.50
72509;PMS5003;60532;56.114;40.350;2022-12-29T05:57:59;28.50;24.75;11.00
72509;PMS5003;60532;56.114;40.350;2022-12-29T06:00:00;25.50;21.00;10.50
72509;PMS5003;60532;56.114;40.350;2022-12-29T06:02:00;25.50;20.25;9.25
72509;PMS5003;60532;56.114;40.350;2022-12-29T06:04:01;29.00;21.75;10.00
72509;PMS5003;60532;56.114;40.350;2022-12-29T06:06:01;25.00;16.25;6.00
72509;PMS5003;60532;56.114;40.350;2022-12-29T06:08:02;28.00;18.75;9.50
72509;PMS5003;60532;56.114;40.350;2022-12-29T06:10:03;28.50;20.00;9.00
72509;PMS5003;60532;56.114;40.350;2022-12-29T06:12:04;31.00;21.40;10.00
72509;PMS5003;60532;56.114;40.350;2022-12-29T06:14:05;28.00;22.00;9.50
72509;PMS5003;60532;56.114;40.350;2022-12-29T06:16:05;29.50;23.00;9.00
72509;PMS5003;60532;56.114;40.350;2022-12-29T06:18:06;18.25;18.00;9.00
72509;PMS5003;60532;56.114;40.350;2022-12-29T06:20:07;26.00;21.00;9.75
72509;PMS5003;60532;56.114;40.350;2022-12-29T06:22:08;27.20;19.60;9.00
72509;PMS5003;60532;56.114;40.350;2022-12-29T06:24:10;29.80;21.40;11.20
72509;PMS5003;60532;56.114;40.350;2022-12-29T06:26:11;28.25;21.50;11.00
72509;PMS5003;60532;56.114;40.350;2022-12-29T06:28:11;25.75;20.00;10.00
72509;PMS5003;60532;56.114;40.350;2022-12-29T06:30:12;29.25;17.25;9.00
72509;PMS5003;60532;56.114;40.350;2022-12-29T06:32:13;25.75;18.50;8.50
72509;PMS5003;60532;56.114;40.350;2022-12-29T06:34:14;24.50;16.00;8.50
72509;PMS5003;60532;56.114;40.350;2022-12-29T06:36:14;24.75;24.00;10.00
72509;PMS5003;60532;56.114;40.350;2022-12-29T06:38:15;24.25;15.25;6.75
72509;PMS5003;60532;56.114;40.350;2022-12-29T06:40:15;28.50;20.25;9.00
72509;PMS5003;60532;56.114;40.350;2022-12-29T06:42:16;21.50;17.00;7.00
72509;PMS5003;60532;56.114;40.350;2022-12-29T06:44:17;23.00;16.25;8.00
72509;PMS5003;60532;56.114;40.350;2022-12-29T06:46:17;24.25;18.50;6.75
72509;PMS5003;60532;56.114;40.350;2022-12-29T06:48:18;26.75;20.25;9.00
72509;PMS5003;60532;56.114;40.350;2022-12-29T06:50:18;25.75;18.50;8.50
72509;PMS5003;60532;56.114;40.350;2022-12-29T06:52:19;27.50;17.00;9.00
72509;PMS5003;60532;56.114;40.350;2022-12-29T06:54:19;23.50;21.00;10.00
72509;PMS5003;60532;56.114;40.350;2022-12-29T06:56:19;28.75;21.00;8.00
72509;PMS5003;60532;56.114;40.350;2022-12-29T06:58:20;31.00;18.75;9.25
72509;PMS5003;60532;56.114;40.350;2022-12-29T07:00:21;27.25;21.75;9.25
72509;PMS5003;60532;56.114;40.350;2022-12-29T07:02:22;22.50;12.25;8.50
72509;PMS5003;60532;56.114;40.350;2022-12-29T07:04:25;21.40;12.40;6.40
72509;PMS5003;60532;56.114;40.350;2022-12-29T07:06:25;26.25;12.50;6.00
72509;PMS5003;60532;56.114;40.350;2022-12-29T07:08:26;19.50;18.25;7.00
72509;PMS5003;60532;56.114;40.350;2022-12-29T07:10:26;29.00;19.50;7.00
72509;PMS5003;60532;56.114;40.350;2022-12-29T07:12:27;27.00;18.00;7.00
72509;PMS5003;60532;56.114;40.350;2022-12-29T07:14:27;19.50;15.75;7.00
72509;PMS5003;60532;56.114;40.350;2022-12-29T07:16:28;19.00;16.00;7.50
72509;PMS5003;60532;56.114;40.350;2022-12-29T07:18:30;21.20;14.60;7.60
72509;PMS5003;60532;56.114;40.350;2022-12-29T07:20:30;16.00;15.25;6.00
72509;PMS5003;60532;56.114;40.350;2022-12-29T07:22:31;16.75;13.50;5.50
72509;PMS5003;60532;56.114;40.350;2022-12-29T07:24:31;15.00;15.00;6.00
72509;PMS5003;60532;56.114;40.350;2022-12-29T07:26:32;12.50;12.25;7.00
72509;PMS5003;60532;56.114;40.350;2022-12-29T07:28:33;15.50;10.50;4.00
72509;PMS5003;60532;56.114;40.350;2022-12-29T07:30:36;15.80;14.80;7.00
72509;PMS5003;60532;56.114;40.350;2022-12-29T07:32:36;9.20;9.20;1.00
72509;PMS5003;60532;56.114;40.350;2022-12-29T07:34:37;22.00;14.00;6.00
72509;PMS5003;60532;56.114;40.350;2022-12-29T07:36:39;15.60;12.40;4.40
72509;PMS5003;60532;56.114;40.350;2022-12-29T07:38:40;27.75;17.00;9.75
72509;PMS5003;60532;56.114;40.350;2022-12-29T07:40:41;22.25;17.00;6.00
72509;PMS5003;60532;56.114;40.350;2022-12-29T07:42:42;19.00;17.00;7.40
72509;PMS5003;60532;56.114;40.350;2022-12-29T07:44:42;18.75;14.00;6.00
72509;PMS5003;60532;56.114;40.350;2022-12-29T07:46:43;19.00;17.50;7.00
72509;PMS5003;60532;56.114;40.350;2022-12-29T07:48:43;21.00;11.00;5.00
72509;PMS5003;60532;56.114;40.350;2022-12-29T07:50:44;14.50;11.00;1.00
72509;PMS5003;60532;56.114;40.350;2022-12-29T07:52:45;14.75;11.50;6.00
72509;PMS5003;60532;56.114;40.350;2022-12-29T07:54:47;16.60;15.20;6.60
72509;PMS5003;60532;56.114;40.350;2022-12-29T07:56:47;21.50;16.00;7.00
72509;PMS5003;60532;56.114;40.350;2022-12-29T07:58:48;18.50;11.50;6.00
72509;PMS5003;60532;56.114;40.350;2022-12-29T08:00:52;17.50;15.25;6.25
72509;PMS5003;60532;56.114;40.350;2022-12-29T08:02:53;19.60;13.80;5.20
72509;PMS5003;60532;56.114;40.350;2022-12-29T08:04:53;14.50;13.00;6.75
72509;PMS5003;60532;56.114;40.350;2022-12-29T08:06:54;23.00;15.75;8.50
72509;PMS5003;60532;56.114;40.350;2022-12-29T08:08:54;18.00;16.00;7.00
72509;PMS5003;60532;56.114;40.350;2022-12-29T08:10:56;15.60;10.40;0.20
72509;PMS5003;60532;56.114;40.350;2022-12-29T08:12:57;16.75;16.75;7.50
72509;PMS5003;60532;56.114;40.350;2022-12-29T08:14:57;12.60;8.60;4.00
72509;PMS5003;60532;56.114;40.350;2022-12-29T08:16:58;22.50;17.50;6.75
72509;PMS5003;60532;56.114;40.350;2022-12-29T08:18:58;20.75;16.50;6.75
72509;PMS5003;60532;56.114;40.350;2022-12-29T08:21:05;22.50;16.00;8.50
72509;PMS5003;60532;56.114;40.350;2022-12-29T08:23:06;18.40;15.00;7.80
72509;PMS5003;60532;56.114;40.350;2022-12-29T08:25:06;18.25;18.25;8.50
72509;PMS5003;60532;56.114;40.350;2022-12-29T08:27:07;17.50;14.50;6.50
72509;PMS5003;60532;56.114;40.350;2022-12-29T08:29:08;27.50;18.25;8.00
72509;PMS5003;60532;56.114;40.350;2022-12-29T08:31:08;16.75;13.25;6.75
72509;PMS5003;60532;56.114;40.350;2022-12-29T08:33:08;22.25;15.50;7.00
72509;PMS5003;60532;56.114;40.350;2022-12-29T08:35:09;16.00;12.50;4.00
72509;PMS5003;60532;56.114;40.350;2022-12-29T08:37:10;19.25;13.50;6.00
72509;PMS5003;60532;56.114;40.350;2022-12-29T08:39:10;17.50;15.50;6.75
72509;PMS5003;60532;56.114;40.350;2022-12-29T08:41:11;20.00;15.25;7.00
72509;PMS5003;60532;56.114;40.350;2022-12-29T08:43:11;9.75;9.75;6.00
72509;PMS5003;60532;56.114;40.350;2022-12-29T08:45:12;18.00;15.00;7.00
72509;PMS5003;60532;56.114;40.350;2022-12-29T08:47:12;20.50;14.00;7.00
72509;PMS5003;60532;56.114;40.350;2022-12-29T08:49:13;15.00;12.75;7.00
72509;PMS5003;60532;56.114;40.350;2022-12-29T08:51:13;20.00;15.25;6.00
72509;PMS5003;60532;56.114;40.350;2022-12-29T08:53:14;12.50;12.50;7.50
72509;PMS5003;60532;56.114;40.350;2022-12-29T08:55:14;15.50;9.75;4.00
72509;PMS5003;60532;56.114;40.350;2022-12-29T08:57:15;16.00;15.00;6.25
72509;PMS5003;60532;56.114;40.350;2022-12-29T08:59:15;15.00;12.00;6.25
72509;PMS5003;60532;56.114;40.350;2022-12-29T09:01:16;9.50;8.00;4.00
72509;PMS5003;60532;56.114;40.350;2022-12-29T09:03:16;16.75;13.00;6.75
72509;PMS5003;60532;56.114;40.350;2022-12-29T09:05:17;13.50;13.00;6.00
72509;PMS5003;60532;56.114;40.350;2022-12-29T09:07:17;15.75;13.50;6.25
72509;PMS5003;60532;56.114;40.350;2022-12-29T09:09:18;16.25;13.50;9.00
72509;PMS5003;60532;56.114;40.350;2022-12-29T09:11:19;15.00;13.00;6.00
72509;PMS5003;60532;56.114;40.350;2022-12-29T09:13:20;18.60;13.80;6.00
72509;PMS5003;60532;56.114;40.350;2022-12-29T09:15:21;19.00;15.00;7.50
72509;PMS5003;60532;56.114;40.350;2022-12-29T09:17:21;17.75;13.75;6.50
72509;PMS5003;60532;56.114;40.350;2022-12-29T09:19:40;13.00;12.00;6.00
72509;PMS5003;60532;56.114;40.350;2022-12-29T09:21:41;16.00;14.50;7.00
72509;PMS5003;60532;56.114;40.350;2022-12-29T09:23:41;11.00;9.75;6.00
72509;PMS5003;60532;56.114;40.350;2022-12-29T09:25:42;16.00;9.50;6.00
72509;PMS5003;60532;56.114;40.350;2022-12-29T09:27:43;17.00;16.00;7.00
72509;PMS5003;60532;56.114;40.350;2022-12-29T09:29:44;18.75;10.00;6.00
72509;PMS5003;60532;56.114;40.350;2022-12-29T09:31:44;13.50;13.50;9.00
72509;PMS5003;60532;56.114;40.350;2022-12-29T09:33:44;17.50;14.50;6.25
72509;PMS5003;60532;56.114;40.350;2022-12-29T09:35:49;7.00;7.00;5.50
72509;PMS5003;60532;56.114;40.350;2022-12-29T09:37:50;13.20;9.00;5.20
72509;PMS5003;60532;56.114;40.350;2022-12-29T09:39:50;19.00;12.00;6.00
72509;PMS5003;60532;56.114;40.350;2022-12-29T09:44:06;17.00;14.80;7.00
72509;PMS5003;60532;56.114;40.350;2022-12-29T09:48:18;17.75;13.50;6.00
72509;PMS5003;60532;56.114;40.350;2022-12-29T09:50:30;16.80;14.60;5.20
72509;PMS5003;60532;56.114;40.350;2022-12-29T09:52:35;17.60;13.40;6.00
72509;PMS5003;60532;56.114;40.350;2022-12-29T09:56:40;13.80;11.00;6.00
72509;PMS5003;60532;56.114;40.350;2022-12-29T10:01:01;15.60;11.20;4.40
72509;PMS5003;60532;56.114;40.350;2022-12-29T10:03:14;16.80;7.80;3.80
72509;PMS5003;60532;56.114;40.350;2022-12-29T10:05:18;8.80;6.00;3.00
72509;PMS5003;60532;56.114;40.350;2022-12-29T10:16:04;13.25;12.25;6.00
72509;PMS5003;60532;56.114;40.350;2022-12-29T10:18:20;15.80;14.40;4.80
72509;PMS5003;60532;56.114;40.350;2022-12-29T10:20:31;9.00;9.00;3.80
72509;PMS5003;60532;56.114;40.350;2022-12-29T10:24:37;10.20;10.20;4.20
72509;PMS5003;60532;56.114;40.350;2022-12-29T10:26:42;6.40;6.00;3.60
72509;PMS5003;60532;56.114;40.350;2022-12-29T10:28:45;11.40;9.20;5.40
72509;PMS5003;60532;56.114;40.350;2022-12-29T10:30:49;11.60;11.40;4.00
72509;PMS5003;60532;56.114;40.350;2022-12-29T10:32:54;15.20;12.60;5.20
72509;PMS5003;60532;56.114;40.350;2022-12-29T10:34:58;11.80;11.80;6.80
72509;PMS5003;60532;56.114;40.350;2022-12-29T10:37:05;20.80;12.60;4.40
72509;PMS5003;60532;56.114;40.350;2022-12-29T10:39:19;10.40;10.40;5.20
72509;PMS5003;60532;56.114;40.350;2022-12-29T10:41:26;12.40;10.40;5.20
72509;PMS5003;60532;56.114;40.350;2022-12-29T10:43:30;13.20;12.80;5.00
72509;PMS5003;60532;56.114;40.350;2022-12-29T10:45:31;10.20;9.60;4.00
72509;PMS5003;60532;56.114;40.350;2022-12-29T10:47:35;19.40;15.20;5.20
72509;PMS5003;60532;56.114;40.350;2022-12-29T10:49:39;13.60;11.80;4.80
72509;PMS5003;60532;56.114;40.350;2022-12-29T10:51:41;15.60;8.80;3.00
72509;PMS5003;60532;56.114;40.350;2022-12-29T10:53:44;13.00;13.00;5.80
72509;PMS5003;60532;56.114;40.350;2022-12-29T10:55:46;12.80;9.80;5.00
72509;PMS5003;60532;56.114;40.350;2022-12-29T10:57:47;8.75;6.50;4.00
72509;PMS5003;60532;56.114;40.350;2022-12-29T10:59:47;7.50;7.50;2.25
72509;PMS5003;60532;56.114;40.350;2022-12-29T11:01:52;14.25;9.50;4.00
72509;PMS5003;60532;56.114;40.350;2022-12-29T11:04:02;9.00;9.00;5.20
72509;PMS5003;60532;56.114;40.350;2022-12-29T11:06:09;15.20;10.00;4.00
72509;PMS5003;60532;56.114;40.350;2022-12-29T11:08:12;10.00;9.60;4.20
72509;PMS5003;60532;56.114;40.350;2022-12-29T11:14:30;13.00;12.25;6.50
72509;PMS5003;60532;56.114;40.350;2022-12-29T11:16:32;11.00;8.60;4.00
72509;PMS5003;60532;56.114;40.350;2022-12-29T11:18:37;14.20;13.40;5.20
72509;PMS5003;60532;56.114;40.350;2022-12-29T11:20:38;8.20;7.20;2.40
72509;PMS5003;60532;56.114;40.350;2022-12-29T11:22:39;17.80;11.00;4.20
72509;PMS5003;60532;56.114;40.350;2022-12-29T11:24:44;15.80;10.00;4.40
72509;PMS5003;60532;56.114;40.350;2022-12-29T11:26:45;14.00;13.00;6.00
72509;PMS5003;60532;56.114;40.350;2022-12-29T11:28:47;17.00;12.00;4.00
72509;PMS5003;60532;56.114;40.350;2022-12-29T11:30:49;16.80;11.80;6.00
72509;PMS5003;60532;56.114;40.350;2022-12-29T11:32:58;18.00;10.40;4.00
72509;PMS5003;60532;56.114;40.350;2022-12-29T11:35:03;14.60;10.00;4.00
72509;PMS5003;60532;56.114;40.350;2022-12-29T11:37:05;16.60;9.00;4.40
72509;PMS5003;60532;56.114;40.350;2022-12-29T11:39:06;23.60;14.20;5.00
72509;PMS5003;60532;56.114;40.350;2022-12-29T11:41:25;14.40;11.20;4.60
72509;PMS5003;60532;56.114;40.350;2022-12-29T11:45:27;11.75;10.50;4.75
72509;PMS5003;60532;56.114;40.350;2022-12-29T11:47:29;12.80;9.80;6.20
72509;PMS5003;60532;56.114;40.350;2022-12-29T11:49:31;20.20;12.40;5.40
72509;PMS5003;60532;56.114;40.350;2022-12-29T11:51:37;18.50;10.25;6.00
72509;PMS5003;60532;56.114;40.350;2022-12-29T11:55:40;14.50;11.25;6.50
72509;PMS5003;60532;56.114;40.350;2022-12-29T11:57:40;13.00;10.25;4.50
72509;PMS5003;60532;56.114;40.350;2022-12-29T11:59:53;13.25;9.50;4.00
72509;PMS5003;60532;56.114;40.350;2022-12-29T12:01:56;17.80;14.20;7.00
72509;PMS5003;60532;56.114;40.350;2022-12-29T12:06:03;18.40;15.20;5.80
72509;PMS5003;60532;56.114;40.350;2022-12-29T12:10:42;15.40;14.20;6.60
72509;PMS5003;60532;56.114;40.350;2022-12-29T12:12:53;28.20;14.40;6.00
72509;PMS5003;60532;56.114;40.350;2022-12-29T12:14:56;14.00;10.00;4.40
72509;PMS5003;60532;56.114;40.350;2022-12-29T12:17:04;12.60;12.00;6.00
72509;PMS5003;60532;56.114;40.350;2022-12-29T12:19:12;17.60;11.40;6.00
72509;PMS5003;60532;56.114;40.350;2022-12-29T12:27:56;12.25;7.00;3.00
72509;PMS5003;60532;56.114;40.350;2022-12-29T12:30:16;17.20;13.40;6.20
72509;PMS5003;60532;56.114;40.350;2022-12-29T12:32:29;19.80;17.60;8.20
72509;PMS5003;60532;56.114;40.350;2022-12-29T12:34:43;16.20;16.20;6.00
72509;PMS5003;60532;56.114;40.350;2022-12-29T12:36:58;25.20;17.20;6.00
72509;PMS5003;60532;56.114;40.350;2022-12-29T12:43:37;9.50;9.50;6.00
72509;PMS5003;60532;56.114;40.350;2022-12-29T12:47:58;20.75;14.75;6.50